Language selection

My Weather Profile Weather Topics  | 

Johnstone Strait: Past 24 Hour Conditions

 

West Sea Otter - 46204

01:00 AM PDT 16 August 2022Buoy position: 51.23N 128.46W
Disclaimer

This table is a summary of hourly weather conditions for the past 24 hours.
Please note that these observations might not always be representative of weather conditions over their associated marine area.

Date / Time
(PDT)
Wind(knots) Wave height(m) Wave period(s) Pressure(kPa) Air tempC) Water tempC)
16 August 2022
1:00 SSE 13 gust 17 1.2 8.0 101.6 15 16
0:00 SSE 12 gust 15 1.3 4.7 101.7 15 16
15 August 2022
23:00 SSE 15 gust 19 1.2 5.3 101.6 15 16
22:00 SSE 15 gust 18 1.2 8.3 101.6 15 16
21:00 SSE 15 gust 18 1.0 4.6 101.6 15 16
20:00 S 17 gust 21 1.0 4.4 101.5 15 15
19:00 SSE 15 gust 18 1.1 4.3 101.6 15 15
18:00 SSE 18 gust 21 1.2 4.6 101.6 16 16
17:00 S 20 gust 24 1.2 4.3 101.6 16 16
16:00 S 16 gust 19 1.1 3.7 101.6 16 16
15:00 SSE 16 gust 20 1.1 6.6 101.6 15 15
14:00 S 16 gust 19 1.3 8.3 101.6 15 15
13:00 S 18 gust 21 1.2 6.7 101.6 16 15
12:00 SSE 12 gust 14 1.0 8.5 101.6 16 15
11:00 SE 12 gust 13 1.0 7.5 101.7 15 15
10:00 SSE 12 gust 15 1.0 7.8 101.7 16 15
9:00 S 12 gust 14 N/A 9.5 101.7 15 15
8:00 SSE 13 gust 15 0.9 8.3 101.6 16 15
7:00 SSE 11 gust 13 0.9 16.0 101.6 15 16
6:00 SSE 12 gust 15 0.9 16.0 101.6 15 15
5:00 SE 13 gust 16 1.0 6.6 101.6 15 16
4:00 SSE 15 gust 18 1.0 6.2 101.6 15 16
3:00 SSE 15 gust 18 1.1 6.4 101.7 15 16
2:00 SSE 13 gust 15 1.4 5.7 101.7 15 16
1:00 SSE 15 gust 18 1.5 6.6 101.7 15 15

Zoom-in to make a selection

Map of Pacific - South Coast marine weather areas South Nomad - 46036 Sentry Shoal - 46131 South Brooks - 46132 Halibut Bank - 46146 South Moresby - 46147 South Hecate Strait - 46185 West Sea Otter - 46204 La Perouse Bank - 46206 East Dellwood - 46207 Georgia Strait - 46303 English Bay - 46304 Discovery Island Esquimalt Harbour Kelp Reefs Malahat Race Rocks Lightstation Saturna Island Sheringham Point University of Victoria Victoria Gonzales Victoria Int'l Airport Ballenas Islands Campbell River Airport Comox Airport Entrance Island Fanny Island Nanaimo Airport Port Hardy Airport Sisters Islets Estevan Point Port Alberni Sartine Island Solander Island Tofino Airport Grief Point Howe Sound - Pam Rocks Powell River Airport Sechelt Squamish Airport Cape St.James Bella Bella Airport Bella Coola Airport Cathedral Point Herbert Island Point Atkinson Sand Heads Lightstation Tsawwassen Ferry Terminal Vancouver Int'l Airport Vancouver Harbour West Vancouver
Legend:
buoy Buoy
land station Land Station

Pacific - South Coast Area

Another Region

What we are doing

Features

WeatherCAN app: set custom notifications

Learn how to set custom Air Quality Health Index notifications on the WeatherCAN app

Are you prepared for summer severe weather?

We have information to help you stay safe

Date modified: